Time;durP1;ratioP1;P1;durP2;ratioP2;P2;SDS_P1;SDS_P2;PMS_P1;PMS_P2;Temp;Humidity;BMP_temperature;BMP_pressure;BME280_temperature;BME280_humidity;BME280_pressure;Samples;Min_cycle;Max_cycle;Signal;HPM_P1;HPM_P2
2023/06/03 11:48:39;;;;;;;1.92;1.30;;;;;;;;;;5919727;27;10001463;-68
2023/06/03 11:51:40;;;;;;;1.85;0.95;;;;;;;;;;6235809;28;76234;-76
2023/06/03 11:54:44;;;;;;;1.52;1.17;;;;;;;;;;6251626;28;20013;-75
2023/06/03 11:57:45;;;;;;;1.08;0.98;;;;;;;;;;6243069;28;20500;-75
2023/06/03 12:00:45;;;;;;;1.45;1.10;;;;;;;;;;6252613;28;20021;-73
2023/06/03 12:03:57;;;;;;;2.27;1.10;;;;;;;;;;6238343;28;20029;-70
2023/06/03 12:06:58;;;;;;;1.13;1.05;;;;;;;;;;6236315;28;20029;-71
2023/06/03 12:09:59;;;;;;;1.55;1.40;;;;;;;;;;6244174;28;20060;-71
2023/06/03 12:12:59;;;;;;;1.55;1.25;;;;;;;;;;6234188;28;20029;-71
2023/06/03 12:15:59;;;;;;;2.93;1.23;;;;;;;;;;6246535;28;20045;-71
2023/06/03 12:19:01;;;;;;;1.40;1.30;;;;;;;;;;6243133;28;20821;-77
2023/06/03 12:22:01;;;;;;;3.08;2.00;;;;;;;;;;6237643;28;20029;-73
2023/06/03 12:25:02;;;;;;;2.28;1.60;;;;;;;;;;6239308;28;20120;-77
2023/06/03 12:28:25;;;;;;;1.83;1.50;;;;;;;;;;6242281;28;20093;-72
2023/06/03 12:31:25;;;;;;;1.58;1.45;;;;;;;;;;6251280;28;20896;-72
2023/06/03 12:34:44;;;;;;;2.17;1.50;;;;;;;;;;6237477;28;20025;-72
2023/06/03 12:37:45;;;;;;;1.90;1.55;;;;;;;;;;6236954;28;20029;-68
2023/06/03 12:40:46;;;;;;;4.45;1.70;;;;;;;;;;6240326;28;20429;-70
2023/06/03 12:43:46;;;;;;;3.33;1.73;;;;;;;;;;6245744;28;20489;-71
2023/06/03 12:47:02;;;;;;;1.67;1.58;;;;;;;;;;6237406;28;20068;-71
2023/06/03 12:50:04;;;;;;;4.72;1.63;;;;;;;;;;6237304;28;20628;-71
2023/06/03 12:53:14;;;;;;;1.88;1.73;;;;;;;;;;6238537;28;20039;-70
2023/06/03 12:56:14;;;;;;;1.70;1.60;;;;;;;;;;6239140;28;20112;-70
2023/06/03 12:59:14;;;;;;;2.20;2.00;;;;;;;;;;6226669;28;20370;-73
2023/06/03 13:02:15;;;;;;;2.33;2.13;;;;;;;;;;6221674;28;20052;-72
2023/06/03 13:05:15;;;;;;;1.90;1.80;;;;;;;;;;6219217;28;20017;-72
2023/06/03 13:08:16;;;;;;;1.88;1.77;;;;;;;;;;6222598;28;20037;-71
2023/06/03 13:11:16;;;;;;;2.10;2.00;;;;;;;;;;6223784;28;20037;-72
2023/06/03 13:14:16;;;;;;;2.45;2.28;;;;;;;;;;6228024;28;20025;-72
2023/06/03 13:17:17;;;;;;;2.45;2.25;;;;;;;;;;6219834;28;20386;-72
2023/06/03 13:20:17;;;;;;;2.50;2.30;;;;;;;;;;6217515;28;20018;-72
2023/06/03 13:23:17;;;;;;;2.37;2.20;;;;;;;;;;6221391;28;20045;-73
2023/06/03 13:26:17;;;;;;;2.20;2.10;;;;;;;;;;6225834;28;20018;-72
2023/06/03 13:29:18;;;;;;;2.63;2.43;;;;;;;;;;6221420;28;20119;-72
2023/06/03 13:32:19;;;;;;;2.53;2.20;;;;;;;;;;6217974;28;20600;-71
2023/06/03 13:35:19;;;;;;;2.53;2.33;;;;;;;;;;6223839;28;20048;-72
2023/06/03 13:38:19;;;;;;;2.47;2.37;;;;;;;;;;6221879;28;20022;-71
2023/06/03 13:41:20;;;;;;;3.20;2.70;;;;;;;;;;6219062;28;20116;-72
2023/06/03 13:44:20;;;;;;;2.30;2.20;;;;;;;;;;6225716;28;20104;-71
2023/06/03 13:47:20;;;;;;;2.65;2.55;;;;;;;;;;6222205;28;20041;-72
2023/06/03 13:50:21;;;;;;;3.00;2.80;;;;;;;;;;6221479;28;20145;-72
2023/06/03 13:53:21;;;;;;;3.20;3.00;;;;;;;;;;6221793;28;20129;-71
2023/06/03 13:56:21;;;;;;;3.10;2.90;;;;;;;;;;6217323;28;20113;-72
2023/06/03 13:59:22;;;;;;;3.20;3.00;;;;;;;;;;6225475;28;20051;-72
2023/06/03 14:02:22;;;;;;;3.35;2.67;;;;;;;;;;6219068;28;20029;-72
2023/06/03 14:05:22;;;;;;;3.10;2.90;;;;;;;;;;6222665;28;20097;-70
2023/06/03 14:08:24;;;;;;;3.23;3.03;;;;;;;;;;6219547;28;20075;-70
2023/06/03 14:11:25;;;;;;;3.10;2.90;;;;;;;;;;6217273;28;20036;-70
2023/06/03 14:14:25;;;;;;;3.42;3.22;;;;;;;;;;6227947;28;20568;-73
2023/06/03 14:17:25;;;;;;;3.00;2.80;;;;;;;;;;6224553;28;20060;-70
2023/06/03 14:20:26;;;;;;;3.47;3.27;;;;;;;;;;6218759;28;20022;-70
2023/06/03 14:23:26;;;;;;;3.43;3.23;;;;;;;;;;6223431;28;20430;-73
2023/06/03 14:26:26;;;;;;;3.50;3.30;;;;;;;;;;6227818;28;20516;-72
2023/06/03 14:29:26;;;;;;;3.30;3.10;;;;;;;;;;6217506;28;20044;-74
2023/06/03 14:32:27;;;;;;;3.50;3.07;;;;;;;;;;6227364;28;20163;-74
2023/06/03 14:35:27;;;;;;;3.13;2.93;;;;;;;;;;5890443;28;10000852;-73
2023/06/03 14:38:28;;;;;;;3.17;2.97;;;;;;;;;;6226033;28;20014;-72
2023/06/03 14:41:32;;;;;;;3.10;2.90;;;;;;;;;;6232948;28;20068;-73
2023/06/03 14:44:32;;;;;;;3.00;2.83;;;;;;;;;;6238916;28;20020;-72
2023/06/03 14:47:32;;;;;;;3.20;3.00;;;;;;;;;;6231378;28;20026;-73
2023/06/03 14:50:33;;;;;;;3.27;3.00;;;;;;;;;;6239652;28;20344;-73
2023/06/03 14:53:33;;;;;;;3.05;2.85;;;;;;;;;;6236368;28;20018;-74
2023/06/03 14:56:33;;;;;;;2.80;2.60;;;;;;;;;;6234080;28;20018;-75
2023/06/03 14:59:33;;;;;;;2.63;2.50;;;;;;;;;;6238570;28;20010;-74
2023/06/03 15:02:34;;;;;;;2.20;2.10;;;;;;;;;;6232767;28;20013;-72
2023/06/03 15:05:34;;;;;;;2.37;2.27;;;;;;;;;;6227267;28;20464;-73
2023/06/03 15:08:34;;;;;;;2.40;2.20;;;;;;;;;;6224582;28;20025;-73
2023/06/03 15:11:34;;;;;;;2.57;1.73;;;;;;;;;;6225517;28;20027;-73
2023/06/03 15:14:35;;;;;;;2.43;2.03;;;;;;;;;;6226100;28;20149;-72
2023/06/03 15:17:35;;;;;;;2.20;2.10;;;;;;;;;;6228732;28;20390;-73
2023/06/03 15:20:35;;;;;;;2.07;1.93;;;;;;;;;;6229342;28;20097;-73
2023/06/03 15:23:36;;;;;;;3.13;2.00;;;;;;;;;;6238924;28;20035;-72
2023/06/03 15:26:36;;;;;;;1.77;1.67;;;;;;;;;;6231499;28;20192;-72
2023/06/03 15:29:36;;;;;;;1.87;1.77;;;;;;;;;;6232523;28;20029;-73
2023/06/03 15:32:36;;;;;;;3.43;1.77;;;;;;;;;;6233415;28;20033;-73
2023/06/03 15:35:37;;;;;;;1.77;1.57;;;;;;;;;;6222369;28;20402;-71
2023/06/03 15:38:37;;;;;;;2.67;1.40;;;;;;;;;;6220851;28;20081;-73
2023/06/03 15:41:38;;;;;;;2.50;1.27;;;;;;;;;;6221438;28;21165;-72
2023/06/03 15:44:39;;;;;;;3.50;1.98;;;;;;;;;;6220118;28;20080;-72
2023/06/03 15:47:39;;;;;;;1.83;1.50;;;;;;;;;;6218083;28;20037;-70
2023/06/03 15:50:39;;;;;;;1.20;1.15;;;;;;;;;;6211161;28;20025;-69
2023/06/03 15:53:40;;;;;;;1.33;1.23;;;;;;;;;;6217227;28;20482;-70
2023/06/03 15:56:40;;;;;;;1.40;1.30;;;;;;;;;;6215701;28;20018;-71
2023/06/03 15:59:40;;;;;;;2.83;1.57;;;;;;;;;;6222525;28;20696;-69
2023/06/03 16:02:40;;;;;;;2.50;1.50;;;;;;;;;;6217690;28;20013;-70
2023/06/03 16:05:41;;;;;;;1.30;1.20;;;;;;;;;;6222093;28;20330;-70
2023/06/03 16:08:41;;;;;;;1.87;1.40;;;;;;;;;;6214694;28;20037;-71
2023/06/03 16:11:42;;;;;;;2.55;1.13;;;;;;;;;;6217051;28;20022;-70
2023/06/03 16:14:42;;;;;;;1.80;1.45;;;;;;;;;;6217754;28;20029;-71
2023/06/03 16:17:42;;;;;;;1.67;1.43;;;;;;;;;;6216308;28;20029;-71
2023/06/03 16:20:43;;;;;;;2.67;1.40;;;;;;;;;;6218453;28;20439;-70
2023/06/03 16:23:43;;;;;;;1.20;1.10;;;;;;;;;;6215570;28;20029;-70
2023/06/03 16:26:44;;;;;;;1.83;1.30;;;;;;;;;;6226532;28;20013;-70
2023/06/03 16:29:44;;;;;;;1.50;1.17;;;;;;;;;;6218786;28;20041;-70
2023/06/03 16:32:45;;;;;;;1.30;1.13;;;;;;;;;;6227113;28;20025;-70
2023/06/03 16:35:45;;;;;;;1.27;1.17;;;;;;;;;;6221399;28;20482;-69
2023/06/03 16:38:45;;;;;;;1.50;1.33;;;;;;;;;;6234351;28;20029;-70
2023/06/03 16:41:45;;;;;;;1.43;1.10;;;;;;;;;;6220801;28;20552;-71
2023/06/03 16:44:46;;;;;;;5.40;1.23;;;;;;;;;;6228827;28;20280;-71
2023/06/03 16:47:46;;;;;;;1.75;1.50;;;;;;;;;;6219954;28;20503;-70
2023/06/03 16:50:46;;;;;;;1.60;1.33;;;;;;;;;;6219103;28;20610;-70
2023/06/03 16:53:46;;;;;;;1.83;1.60;;;;;;;;;;6220003;28;20298;-70
2023/06/03 16:56:47;;;;;;;1.87;1.20;;;;;;;;;;6219212;28;20284;-70
2023/06/03 16:59:47;;;;;;;1.70;1.30;;;;;;;;;;6223541;28;20275;-70
2023/06/03 17:02:47;;;;;;;2.23;1.50;;;;;;;;;;6226573;28;20734;-71
2023/06/03 17:05:48;;;;;;;1.90;1.40;;;;;;;;;;6217503;28;20103;-71
2023/06/03 17:08:48;;;;;;;1.45;1.15;;;;;;;;;;6228634;28;20402;-69
2023/06/03 17:11:48;;;;;;;1.30;1.10;;;;;;;;;;6220984;28;20763;-70
2023/06/03 17:14:48;;;;;;;2.77;1.40;;;;;;;;;;6218663;28;20028;-71
2023/06/03 17:17:49;;;;;;;3.58;1.48;;;;;;;;;;6222264;28;20037;-70
2023/06/03 17:20:49;;;;;;;2.13;1.40;;;;;;;;;;6237994;28;20021;-70
2023/06/03 17:23:50;;;;;;;1.70;1.33;;;;;;;;;;6221125;28;20020;-69
2023/06/03 17:26:50;;;;;;;3.30;1.70;;;;;;;;;;6221445;28;20144;-70
2023/06/03 17:29:52;;;;;;;1.50;1.40;;;;;;;;;;6218387;28;20406;-71
2023/06/03 17:32:52;;;;;;;2.65;1.70;;;;;;;;;;6226938;28;20017;-69
2023/06/03 17:35:53;;;;;;;1.53;1.20;;;;;;;;;;6220704;28;20025;-71
2023/06/03 17:38:53;;;;;;;3.40;1.48;;;;;;;;;;6224105;28;20272;-71
2023/06/03 17:41:53;;;;;;;1.92;1.35;;;;;;;;;;6224611;28;20026;-71
2023/06/03 17:44:54;;;;;;;2.28;1.40;;;;;;;;;;6221464;28;20021;-65
2023/06/03 17:47:54;;;;;;;1.30;1.20;;;;;;;;;;6222912;28;20033;-62
2023/06/03 17:50:55;;;;;;;2.95;1.38;;;;;;;;;;6224891;28;20124;-64
2023/06/03 17:53:55;;;;;;;1.60;1.40;;;;;;;;;;6220855;28;20438;-64
2023/06/03 17:56:56;;;;;;;3.28;1.40;;;;;;;;;;6224748;28;20030;-65
2023/06/03 17:59:56;;;;;;;1.77;1.30;;;;;;;;;;6215004;28;20033;-65
2023/06/03 18:02:56;;;;;;;3.40;1.30;;;;;;;;;;6220528;28;20280;-64
2023/06/03 18:05:56;;;;;;;2.30;2.10;;;;;;;;;;6218989;28;20574;-65
2023/06/03 18:08:57;;;;;;;1.70;1.58;;;;;;;;;;6215610;28;20276;-63
2023/06/03 18:11:57;;;;;;;3.40;1.60;;;;;;;;;;6221992;28;20049;-62
2023/06/03 18:14:58;;;;;;;3.27;1.67;;;;;;;;;;6222737;28;20051;-61
2023/06/03 18:17:58;;;;;;;2.97;2.00;;;;;;;;;;6226075;28;20284;-63
2023/06/03 18:20:58;;;;;;;2.70;1.93;;;;;;;;;;6233422;28;20025;-63
2023/06/03 18:23:59;;;;;;;3.67;2.08;;;;;;;;;;6232292;28;20275;-64
2023/06/03 18:26:59;;;;;;;3.20;1.98;;;;;;;;;;6224998;28;20550;-63
2023/06/03 18:30:00;;;;;;;3.60;1.80;;;;;;;;;;6222545;28;20029;-71
2023/06/03 18:33:00;;;;;;;2.67;1.60;;;;;;;;;;6237193;28;20025;-72
2023/06/03 18:36:00;;;;;;;3.72;1.50;;;;;;;;;;6226898;28;20029;-71
2023/06/03 18:39:00;;;;;;;2.47;1.38;;;;;;;;;;6214191;28;20378;-70
2023/06/03 18:42:01;;;;;;;1.73;1.43;;;;;;;;;;6219846;28;20124;-71
2023/06/03 18:45:01;;;;;;;2.30;1.60;;;;;;;;;;6223099;28;20457;-73
2023/06/03 18:48:02;;;;;;;3.60;1.63;;;;;;;;;;6215380;28;21243;-71
2023/06/03 18:51:02;;;;;;;2.17;1.40;;;;;;;;;;6217877;28;20029;-71
2023/06/03 18:54:02;;;;;;;2.38;1.60;;;;;;;;;;6225694;28;20026;-71
2023/06/03 18:57:03;;;;;;;2.13;1.60;;;;;;;;;;6238928;28;20030;-72
2023/06/03 19:00:04;;;;;;;2.05;1.60;;;;;;;;;;6228459;28;20566;-70
2023/06/03 19:03:05;;;;;;;1.63;1.52;;;;;;;;;;6230001;28;20458;-73
2023/06/03 19:06:05;;;;;;;2.67;1.73;;;;;;;;;;6214607;28;20142;-71
2023/06/03 19:09:09;;;;;;;1.50;1.35;;;;;;;;;;6215357;28;20079;-72
2023/06/03 19:12:09;;;;;;;2.78;1.63;;;;;;;;;;6223504;28;20017;-71
2023/06/03 19:15:09;;;;;;;3.75;1.40;;;;;;;;;;6216815;28;20036;-73
2023/06/03 19:18:12;;;;;;;1.73;1.50;;;;;;;;;;6224291;28;20399;-72
2023/06/03 19:21:12;;;;;;;2.28;1.65;;;;;;;;;;6220893;28;20813;-72
2023/06/03 19:24:12;;;;;;;2.17;1.90;;;;;;;;;;6216010;28;20032;-69
2023/06/03 19:27:12;;;;;;;3.45;1.92;;;;;;;;;;6221607;28;20103;-72
2023/06/03 19:30:13;;;;;;;2.53;1.50;;;;;;;;;;6219768;28;20021;-71
2023/06/03 19:33:15;;;;;;;2.33;1.73;;;;;;;;;;6224006;28;20272;-71
2023/06/03 19:36:15;;;;;;;2.38;1.85;;;;;;;;;;6218918;28;20247;-71
2023/06/03 19:39:15;;;;;;;;;;;;;;;;;;6219442;28;20025;-70
2023/06/03 19:42:15;;;;;;;2.38;1.50;;;;;;;;;;6219186;28;19917;-70
2023/06/03 19:45:16;;;;;;;;;;;;;;;;;;6221306;28;20493;-70
2023/06/03 19:48:16;;;;;;;2.07;1.70;;;;;;;;;;6235952;28;20661;-69
2023/06/03 19:51:18;;;;;;;2.10;1.40;;;;;;;;;;6219486;28;20022;-70
2023/06/03 19:54:18;;;;;;;1.58;1.30;;;;;;;;;;6216051;28;20060;-68
2023/06/03 19:57:20;;;;;;;;;;;;;;;;;;6216193;28;20026;-70
2023/06/03 20:00:21;;;;;;;2.00;1.20;;;;;;;;;;6217943;28;19967;-69
2023/06/03 20:03:21;;;;;;;;;;;;;;;;;;6222626;28;20112;-70
2023/06/03 20:06:22;;;;;;;2.20;1.37;;;;;;;;;;6216381;28;20071;-72
2023/06/03 20:09:23;;;;;;;1.90;1.45;;;;;;;;;;6225118;28;20030;-71
2023/06/03 20:12:23;;;;;;;;;;;;;;;;;;6224058;28;20394;-71
2023/06/03 20:15:23;;;;;;;3.28;1.58;;;;;;;;;;6222670;28;19944;-72
2023/06/03 20:18:23;;;;;;;;;;;;;;;;;;6218053;28;20053;-72
2023/06/03 20:21:23;;;;;;;4.18;1.40;;;;;;;;;;6223107;28;19923;-70
2023/06/03 20:24:23;;;;;;;;;;;;;;;;;;6225260;28;20643;-71
2023/06/03 20:27:24;;;;;;;2.28;1.13;;;;;;;;;;6218347;28;19942;-71
2023/06/03 20:30:24;;;;;;;;;;;;;;;;;;6220114;28;20033;-70
2023/06/03 20:33:25;;;;;;;4.33;1.60;;;;;;;;;;6225119;28;20313;-70
2023/06/03 20:36:25;;;;;;;;;;;;;;;;;;6230682;28;20025;-72
2023/06/03 20:39:26;;;;;;;2.45;1.35;;;;;;;;;;6220857;28;20374;-72
2023/06/03 20:42:26;;;;;;;;;;;;;;;;;;6220510;28;20020;-72
2023/06/03 20:45:27;;;;;;;1.70;1.10;;;;;;;;;;6221471;28;19931;-73
2023/06/03 20:48:27;;;;;;;;;;;;;;;;;;6221870;28;20025;-71
2023/06/03 20:51:27;;;;;;;2.90;1.20;;;;;;;;;;6222100;28;19967;-70
2023/06/03 20:54:27;;;;;;;;;;;;;;;;;;6222935;28;20069;-72
2023/06/03 20:57:28;;;;;;;2.05;1.33;;;;;;;;;;6216859;28;19953;-72
2023/06/03 21:00:28;;;;;;;;;;;;;;;;;;6222076;28;20472;-73
2023/06/03 21:03:28;;;;;;;2.88;1.40;;;;;;;;;;6223189;28;20378;-70
2023/06/03 21:06:28;;;;;;;;;;;;;;;;;;6226624;28;20482;-70
2023/06/03 21:09:28;;;;;;;2.17;1.25;;;;;;;;;;6218595;28;20122;-70
2023/06/03 21:12:31;;;;;;;;;;;;;;;;;;6219060;28;20489;-72
2023/06/03 21:15:31;;;;;;;2.45;1.52;;;;;;;;;;6219732;28;19998;-73
2023/06/03 21:18:31;;;;;;;;;;;;;;;;;;6224803;28;20025;-71
2023/06/03 21:21:31;;;;;;;3.20;1.25;;;;;;;;;;6219939;28;19913;-72
2023/06/03 21:24:31;;;;;;;2.80;1.23;;;;;;;;;;6217067;28;20026;-72
2023/06/03 21:27:31;;;;;;;;;;;;;;;;;;6221272;28;20029;-70
2023/06/03 21:30:32;;;;;;;1.70;1.33;;;;;;;;;;6220317;28;19913;-72
2023/06/03 21:33:32;;;;;;;1.75;1.25;;;;;;;;;;6225748;28;20116;-71
2023/06/03 21:36:32;;;;;;;;;;;;;;;;;;6226101;28;21312;-70
2023/06/03 21:39:33;;;;;;;3.50;1.38;;;;;;;;;;6219783;28;20397;-71
2023/06/03 21:42:33;;;;;;;2.63;1.83;;;;;;;;;;6216360;28;20105;-71
2023/06/03 21:45:34;;;;;;;2.30;1.58;;;;;;;;;;6224062;28;20450;-70
2023/06/03 21:48:34;;;;;;;3.03;1.70;;;;;;;;;;6220463;28;20037;-71
2023/06/03 21:51:35;;;;;;;1.67;1.50;;;;;;;;;;6223474;28;20100;-70
2023/06/03 21:54:35;;;;;;;2.55;1.67;;;;;;;;;;6216447;28;20304;-71
2023/06/03 21:57:36;;;;;;;2.20;1.40;;;;;;;;;;6222907;28;20125;-71
2023/06/03 22:00:36;;;;;;;1.77;1.40;;;;;;;;;;6220298;28;20018;-70
2023/06/03 22:03:37;;;;;;;2.42;1.40;;;;;;;;;;6216487;28;20518;-71
2023/06/03 22:06:37;;;;;;;3.27;1.40;;;;;;;;;;6220221;28;20029;-71
2023/06/03 22:09:37;;;;;;;2.00;1.40;;;;;;;;;;6218379;28;20056;-71
2023/06/03 22:12:37;;;;;;;2.40;1.60;;;;;;;;;;6217993;28;20024;-70
2023/06/03 22:15:38;;;;;;;1.77;1.23;;;;;;;;;;6220520;28;20033;-69
2023/06/03 22:18:38;;;;;;;6.53;1.53;;;;;;;;;;6218842;28;20021;-71
2023/06/03 22:21:38;;;;;;;3.23;1.60;;;;;;;;;;6218222;28;20017;-69
2023/06/03 22:24:38;;;;;;;2.77;1.60;;;;;;;;;;6231212;28;20037;-68
2023/06/03 22:27:39;;;;;;;1.50;1.33;;;;;;;;;;6231584;28;20268;-72
2023/06/03 22:30:39;;;;;;;1.97;1.47;;;;;;;;;;6226570;28;20072;-71
2023/06/03 22:33:40;;;;;;;2.75;1.60;;;;;;;;;;6231118;28;20060;-71
2023/06/03 22:36:40;;;;;;;3.47;1.90;;;;;;;;;;6227273;28;20033;-72
2023/06/03 22:39:40;;;;;;;5.07;1.50;;;;;;;;;;6225677;28;20032;-71
2023/06/03 22:42:41;;;;;;;2.23;1.60;;;;;;;;;;6224082;28;20124;-70
2023/06/03 22:45:41;;;;;;;1.70;1.20;;;;;;;;;;6229935;28;20014;-70
2023/06/03 22:48:41;;;;;;;2.40;1.67;;;;;;;;;;6242212;28;20488;-71
2023/06/03 22:51:41;;;;;;;2.73;1.40;;;;;;;;;;6230301;28;20032;-71
2023/06/03 22:54:42;;;;;;;3.43;1.80;;;;;;;;;;6226141;28;20082;-73
2023/06/03 22:57:42;;;;;;;4.37;1.60;;;;;;;;;;6223351;28;20021;-71
2023/06/03 23:00:42;;;;;;;2.20;1.50;;;;;;;;;;6221774;28;20076;-71
2023/06/03 23:03:43;;;;;;;1.33;1.20;;;;;;;;;;6225262;28;20041;-71
2023/06/03 23:06:43;;;;;;;5.25;1.48;;;;;;;;;;6222253;28;20056;-72
2023/06/03 23:09:43;;;;;;;2.33;1.50;;;;;;;;;;6217257;28;20017;-70
2023/06/03 23:12:44;;;;;;;2.33;1.53;;;;;;;;;;6222504;28;20427;-72
2023/06/03 23:15:45;;;;;;;1.75;1.48;;;;;;;;;;6219235;28;20027;-73
2023/06/03 23:18:45;;;;;;;3.97;1.65;;;;;;;;;;6220042;28;20034;-71
2023/06/03 23:21:46;;;;;;;2.10;1.57;;;;;;;;;;6221112;28;20080;-72
2023/06/03 23:24:46;;;;;;;2.70;1.67;;;;;;;;;;6221383;28;20475;-69
2023/06/03 23:27:46;;;;;;;2.00;1.67;;;;;;;;;;6223074;28;20030;-70
2023/06/03 23:30:46;;;;;;;2.08;1.60;;;;;;;;;;6221354;28;20071;-70
2023/06/03 23:33:47;;;;;;;2.93;1.67;;;;;;;;;;6220526;28;20026;-69
2023/06/03 23:36:47;;;;;;;2.33;1.57;;;;;;;;;;6225757;28;20017;-71
2023/06/03 23:39:48;;;;;;;2.85;1.85;;;;;;;;;;6221829;28;20036;-70
2023/06/03 23:42:48;;;;;;;3.07;1.70;;;;;;;;;;6226607;28;20037;-72
2023/06/03 23:45:48;;;;;;;2.53;1.80;;;;;;;;;;6219471;28;20026;-72
2023/06/03 23:48:48;;;;;;;2.60;1.80;;;;;;;;;;6217193;28;20026;-71
2023/06/03 23:51:49;;;;;;;2.43;1.70;;;;;;;;;;6224013;28;20033;-72
2023/06/03 23:54:49;;;;;;;2.67;1.67;;;;;;;;;;6224242;28;20040;-71
2023/06/03 23:57:49;;;;;;;2.80;1.63;;;;;;;;;;6231816;28;20029;-71
